Levis, Canada
Current Conditions -  °F | °C
As of 1:00 AM on Thursday 29 Jan 2015 (Local Time) from CYQB Reporting Station
Clear Clear  
Wind Chill: -11°   Ceiling: Unl
Heat Index:   Visibility: 15mi
Dew Point: -2°   Wind: 15mph
Humidity: 67%   Direction: 220°SW
Pressure: 30.25"   Gusts: NA
Location:  46.8°N, 71.18°W
Report Text: CYQB 290600Z 22013KT 15SM SKC M14/M19 A3025 RMK SLP250
Loading
Personal Weather Stations






























Interactive Weather Map New forecast layout! Learn more

10-Day Weather Forecast

Advertisements
Track Severe Weather on mobile